createdAt,value
2018-11-12T00:01:14.982Z,71.42
2018-11-12T00:03:43.439Z,70.88
2018-11-12T00:06:11.952Z,69.96
2018-11-12T00:08:40.403Z,69.83
2018-11-12T00:11:08.819Z,70.32
2018-11-12T00:13:37.319Z,70.61
2018-11-12T00:16:06.266Z,69.54
2018-11-12T00:18:34.718Z,68.90
2018-11-12T00:21:03.159Z,69.41
2018-11-12T00:23:31.607Z,69.74
2018-11-12T00:26:00.044Z,70.18
2018-11-12T00:28:28.519Z,70.14
2018-11-12T00:30:56.928Z,70.43
2018-11-12T00:33:25.384Z,70.15
2018-11-12T00:35:53.810Z,69.38
2018-11-12T00:38:22.275Z,70.07
2018-11-12T00:40:50.708Z,69.12
2018-11-12T00:43:19.165Z,69.26
2018-11-12T00:45:47.635Z,69.40
2018-11-12T00:48:16.100Z,69.38
2018-11-12T00:50:44.578Z,69.87
2018-11-12T00:53:13.032Z,69.04
2018-11-12T00:55:41.497Z,68.97
2018-11-12T00:58:09.923Z,69.31
2018-11-12T01:00:38.367Z,68.85
2018-11-12T01:03:06.789Z,69.86
2018-11-12T01:05:35.238Z,69.01
2018-11-12T01:08:03.663Z,69.38
2018-11-12T01:10:32.115Z,69.16
2018-11-12T01:13:00.587Z,69.30
2018-11-12T01:15:29.038Z,68.73
2018-11-12T01:17:57.458Z,69.09
2018-11-12T01:20:25.899Z,69.09
2018-11-12T01:22:54.340Z,68.58
2018-11-12T01:25:22.802Z,68.57
2018-11-12T01:27:51.256Z,68.35
2018-11-12T01:30:19.962Z,68.53
2018-11-12T01:32:48.531Z,68.55
2018-11-12T01:35:17.950Z,68.06
2018-11-12T01:37:46.471Z,68.90
2018-11-12T01:40:15.621Z,68.38
2018-11-12T01:42:44.475Z,68.29
2018-11-12T01:45:15.358Z,68.38
2018-11-12T01:47:45.049Z,67.99
2018-11-12T01:50:13.875Z,68.67
2018-11-12T01:52:43.250Z,68.09
2018-11-12T01:55:12.824Z,68.06
2018-11-12T01:57:41.321Z,67.75
2018-11-12T02:00:12.863Z,67.95
2018-11-12T02:02:41.674Z,68.34
2018-11-12T02:05:10.458Z,68.13
2018-11-12T02:07:38.954Z,67.92
2018-11-12T02:10:08.958Z,67.96
2018-11-12T02:12:37.746Z,68.18
2018-11-12T02:15:08.368Z,68.68
2018-11-12T02:17:36.816Z,68.27
2018-11-12T02:20:06.571Z,68.54
2018-11-12T02:22:35.048Z,68.67
2018-11-12T02:25:03.623Z,68.95
2018-11-12T02:27:32.093Z,69.15
2018-11-12T02:30:00.523Z,69.06
2018-11-12T02:32:28.982Z,68.90
2018-11-12T02:34:57.395Z,68.72
2018-11-12T02:37:25.839Z,68.13
2018-11-12T02:39:54.291Z,68.31
2018-11-12T02:42:22.771Z,68.75
2018-11-12T02:44:51.242Z,67.81
2018-11-12T02:47:19.699Z,67.75
2018-11-12T02:49:48.157Z,68.29
2018-11-12T02:52:16.586Z,68.17
2018-11-12T02:54:45.051Z,67.78
2018-11-12T02:57:13.507Z,67.96
2018-11-12T02:59:41.927Z,68.00
2018-11-12T03:02:10.358Z,67.52
2018-11-12T03:04:38.815Z,67.85
2018-11-12T03:07:07.276Z,67.77
2018-11-12T03:09:35.731Z,66.61
2018-11-12T03:12:04.152Z,67.28
2018-11-12T03:14:32.623Z,66.91
2018-11-12T03:17:01.059Z,67.22
2018-11-12T03:19:29.514Z,67.21
2018-11-12T03:21:57.925Z,66.65
2018-11-12T03:24:26.374Z,67.18
2018-11-12T03:26:54.791Z,66.88
2018-11-12T03:29:23.267Z,67.09
2018-11-12T03:31:51.686Z,66.89
2018-11-12T03:34:20.144Z,67.34
2018-11-12T03:36:48.555Z,66.85
2018-11-12T03:39:16.951Z,66.91
2018-11-12T03:41:45.395Z,66.46
2018-11-12T03:44:13.822Z,66.25
2018-11-12T03:46:42.254Z,66.65
2018-11-12T03:49:10.655Z,66.30
2018-11-12T03:51:39.122Z,66.55
2018-11-12T03:54:07.546Z,66.83
2018-11-12T03:56:35.979Z,66.88
2018-11-12T03:59:04.907Z,66.98
2018-11-12T04:01:38.450Z,67.24
2018-11-12T04:04:06.874Z,67.37
2018-11-12T04:06:35.369Z,66.99
2018-11-12T04:09:04.970Z,66.63
2018-11-12T04:11:33.406Z,66.64
2018-11-12T04:14:01.847Z,66.21
2018-11-12T04:16:30.286Z,66.28
2018-11-12T04:18:58.699Z,66.46
2018-11-12T04:21:27.148Z,66.57
2018-11-12T04:23:55.603Z,66.84
2018-11-12T04:26:24.040Z,66.93
2018-11-12T04:28:52.447Z,67.09
2018-11-12T04:31:20.908Z,67.81
2018-11-12T04:33:49.316Z,68.32
2018-11-12T04:36:17.722Z,68.57
2018-11-12T04:38:46.180Z,68.90
2018-11-12T04:41:14.583Z,69.77
2018-11-12T04:43:43.031Z,69.77
2018-11-12T04:46:11.446Z,70.01
2018-11-12T04:48:40.015Z,70.21
2018-11-12T04:51:08.442Z,69.91
2018-11-12T04:53:36.978Z,69.95
2018-11-12T04:56:05.534Z,69.34
2018-11-12T04:58:33.966Z,68.64
2018-11-12T05:01:02.599Z,68.31
2018-11-12T05:03:31.048Z,68.23
2018-11-12T05:05:59.492Z,69.02
2018-11-12T05:08:27.931Z,68.52
2018-11-12T05:10:56.350Z,68.61
2018-11-12T05:13:24.822Z,69.09
2018-11-12T05:15:53.231Z,69.18
2018-11-12T05:18:21.677Z,68.82
2018-11-12T05:20:50.094Z,67.63
2018-11-12T05:23:18.567Z,67.21
2018-11-12T05:25:46.981Z,67.29
2018-11-12T05:28:15.447Z,67.33
2018-11-12T05:30:43.859Z,66.89
2018-11-12T05:33:12.327Z,67.34
2018-11-12T05:35:40.767Z,67.21
2018-11-12T05:38:09.208Z,67.03
2018-11-12T05:40:37.634Z,67.01
2018-11-12T05:43:06.039Z,66.51
2018-11-12T05:45:34.463Z,66.20
2018-11-12T05:48:02.861Z,64.72
2018-11-12T05:50:32.034Z,65.38
2018-11-12T05:53:02.726Z,65.84
2018-11-12T05:55:31.654Z,65.27
2018-11-12T05:58:00.411Z,65.56
2018-11-12T06:00:37.029Z,65.87
2018-11-12T06:03:05.672Z,65.47
2018-11-12T06:05:34.790Z,65.12
2018-11-12T06:08:03.556Z,64.88
2018-11-12T06:10:33.001Z,65.01
2018-11-12T06:13:01.474Z,65.35
2018-11-12T06:15:29.915Z,65.04
2018-11-12T06:17:58.336Z,66.14
2018-11-12T06:20:29.055Z,66.05
2018-11-12T06:22:57.501Z,65.60
2018-11-12T06:25:28.298Z,64.40
2018-11-12T06:27:57.130Z,65.51
2018-11-12T06:30:27.207Z,64.71
2018-11-12T06:32:55.619Z,64.55
2018-11-12T06:35:24.062Z,63.69
2018-11-12T06:37:53.093Z,63.81
2018-11-12T06:40:22.655Z,64.12
2018-11-12T06:42:51.428Z,63.13
2018-11-12T06:45:21.099Z,63.41
2018-11-12T06:47:50.546Z,63.38
2018-11-12T06:50:23.306Z,63.86
2018-11-12T06:52:51.806Z,64.76
2018-11-12T06:55:20.662Z,64.51
2018-11-12T06:57:49.474Z,63.51
2018-11-12T07:00:21.972Z,63.89
2018-11-12T07:02:50.443Z,64.04
2018-11-12T07:05:19.115Z,64.55
2018-11-12T07:07:47.589Z,64.04
2018-11-12T07:10:17.277Z,64.01
2018-11-12T07:12:46.607Z,63.64
2018-11-12T07:15:17.102Z,62.54
2018-11-12T07:17:45.586Z,62.99
2018-11-12T07:20:15.509Z,62.39
2018-11-12T07:22:43.989Z,63.02
2018-11-12T07:25:13.486Z,62.96
2018-11-12T07:27:41.874Z,62.20
2018-11-12T07:30:16.830Z,63.64
2018-11-12T07:32:45.842Z,62.48
2018-11-12T07:35:15.203Z,62.77
2018-11-12T07:37:44.839Z,62.12
2018-11-12T07:40:14.030Z,62.75
2018-11-12T07:42:42.778Z,62.19
2018-11-12T07:45:13.547Z,61.88
2018-11-12T07:47:43.032Z,61.38
2018-11-12T07:50:15.444Z,61.48
2018-11-12T07:52:43.976Z,61.43
2018-11-12T07:55:14.433Z,61.77
2018-11-12T07:57:43.413Z,60.99
2018-11-12T08:00:14.563Z,61.52
2018-11-12T08:02:43.948Z,60.13
2018-11-12T08:05:12.971Z,60.09
2018-11-12T08:07:42.064Z,59.44
2018-11-12T08:10:15.368Z,59.75
2018-11-12T08:12:44.601Z,59.55
2018-11-12T08:15:14.390Z,59.11
2018-11-12T08:17:43.130Z,58.14
2018-11-12T08:20:16.578Z,57.83
2018-11-12T08:22:46.083Z,57.79
2018-11-12T08:25:14.603Z,56.90
2018-11-12T08:27:43.703Z,56.47
2018-11-12T08:30:17.331Z,56.20
2018-11-12T08:32:46.724Z,56.44
2018-11-12T08:35:15.847Z,56.35
2018-11-12T08:37:44.697Z,55.06
2018-11-12T08:40:15.569Z,55.26
2018-11-12T08:42:44.307Z,55.82
2018-11-12T08:45:13.304Z,55.55
2018-11-12T08:47:42.713Z,54.61
2018-11-12T08:50:13.295Z,54.72
2018-11-12T08:52:43.216Z,54.30
2018-11-12T08:55:14.234Z,54.43
2018-11-12T08:57:43.825Z,53.49
2018-11-12T09:00:12.890Z,53.39
2018-11-12T09:02:41.626Z,53.03
2018-11-12T09:05:12.219Z,52.81
2018-11-12T09:07:41.864Z,52.90
2018-11-12T09:10:17.085Z,52.89
2018-11-12T09:12:45.994Z,53.07
2018-11-12T09:15:14.852Z,53.25
2018-11-12T09:17:44.088Z,53.33
2018-11-12T09:20:15.967Z,53.74
2018-11-12T09:22:44.488Z,52.82
2018-11-12T09:25:14.719Z,53.38
2018-11-12T09:27:43.314Z,52.27
2018-11-12T09:30:13.815Z,52.80
2018-11-12T09:32:42.787Z,53.08
2018-11-12T09:35:13.431Z,52.69
2018-11-12T09:37:42.579Z,52.04
2018-11-12T09:40:15.105Z,52.88
2018-11-12T09:42:43.793Z,52.88
2018-11-12T09:45:12.395Z,52.08
2018-11-12T09:47:41.693Z,52.30
2018-11-12T09:50:13.265Z,52.11
2018-11-12T09:52:43.068Z,51.10
2018-11-12T09:55:12.478Z,51.54
2018-11-12T09:57:41.846Z,50.55
2018-11-12T10:00:12.968Z,50.39
2018-11-12T10:02:42.964Z,51.11
2018-11-12T10:05:11.645Z,50.77
2018-11-12T10:07:40.699Z,50.34
2018-11-12T10:10:28.226Z,50.30
2018-11-12T10:12:56.028Z,50.29
2018-11-12T10:15:24.533Z,50.04
2018-11-12T10:17:53.206Z,50.46
2018-11-12T10:20:19.753Z,50.18
2018-11-12T10:22:48.879Z,49.64
2018-11-12T10:25:17.798Z,50.44
2018-11-12T10:27:46.210Z,50.95
2018-11-12T10:30:14.714Z,50.88
2018-11-12T10:32:43.131Z,50.81
2018-11-12T10:35:11.832Z,51.10
2018-11-12T10:37:41.092Z,51.03
2018-11-12T10:40:15.530Z,50.83
2018-11-12T10:42:44.586Z,51.54
2018-11-12T10:45:13.224Z,50.51
2018-11-12T10:47:41.822Z,50.94
2018-11-12T10:50:10.283Z,51.22
2018-11-12T10:52:38.714Z,50.84
2018-11-12T10:55:10.280Z,51.32
2018-11-12T10:57:38.558Z,50.34
2018-11-12T11:00:15.399Z,50.42
2018-11-12T11:02:49.006Z,51.01
2018-11-12T11:05:17.441Z,51.04
2018-11-12T11:07:45.906Z,50.52
2018-11-12T11:10:14.310Z,51.09
2018-11-12T11:12:43.622Z,50.27
2018-11-12T11:15:12.160Z,50.65
2018-11-12T11:17:40.632Z,49.42
2018-11-12T11:20:09.090Z,49.64
2018-11-12T11:22:37.529Z,50.49
2018-11-12T11:25:06.063Z,49.91
2018-11-12T11:27:34.539Z,50.01
2018-11-12T11:30:03.020Z,49.65
2018-11-12T11:32:31.466Z,50.17
2018-11-12T11:34:59.895Z,50.43
2018-11-12T11:37:28.382Z,50.17
2018-11-12T11:39:56.831Z,50.41
2018-11-12T11:42:28.029Z,50.19
2018-11-12T11:44:56.490Z,49.61
2018-11-12T11:47:24.998Z,49.55
2018-11-12T11:49:53.359Z,49.33
2018-11-12T11:52:21.773Z,50.20
2018-11-12T11:54:50.207Z,49.75
2018-11-12T11:57:18.648Z,49.52
2018-11-12T11:59:47.075Z,49.59
2018-11-12T12:02:15.617Z,49.56
2018-11-12T12:04:43.950Z,48.97
2018-11-12T12:07:12.443Z,48.63
2018-11-12T12:09:40.886Z,48.63
2018-11-12T12:12:09.323Z,48.55
2018-11-12T12:14:37.803Z,48.25
2018-11-12T12:17:06.290Z,47.48
2018-11-12T12:19:34.735Z,47.85
2018-11-12T12:22:03.150Z,48.25
2018-11-12T12:24:31.648Z,48.01
2018-11-12T12:27:00.035Z,48.86
2018-11-12T12:29:28.571Z,48.13
2018-11-12T12:31:56.970Z,48.79
2018-11-12T12:34:25.386Z,48.43
2018-11-12T12:36:54.273Z,48.70
2018-11-12T12:39:22.653Z,49.44
2018-11-12T12:41:51.142Z,48.76
2018-11-12T12:44:19.645Z,49.59
2018-11-12T12:46:48.063Z,49.72
2018-11-12T12:49:16.643Z,49.04
2018-11-12T12:51:45.118Z,49.93
2018-11-12T12:54:13.527Z,50.14
2018-11-12T12:56:41.959Z,50.20
2018-11-12T12:59:10.378Z,49.86
2018-11-12T13:01:38.934Z,49.80
2018-11-12T13:04:07.254Z,50.48
2018-11-12T13:06:35.722Z,50.75
2018-11-12T13:09:04.566Z,50.63
2018-11-12T13:11:33.007Z,50.75
2018-11-12T13:14:01.474Z,50.19
2018-11-12T13:16:29.916Z,50.04
2018-11-12T13:18:58.322Z,49.59
2018-11-12T13:21:27.028Z,48.81
2018-11-12T13:23:55.324Z,49.01
2018-11-12T13:26:23.796Z,48.73
2018-11-12T13:28:52.233Z,48.46
2018-11-12T13:31:20.663Z,48.52
2018-11-12T13:33:49.105Z,47.86
2018-11-12T13:36:17.509Z,48.01
2018-11-12T13:38:45.975Z,48.79
2018-11-12T13:41:14.407Z,48.48
2018-11-12T13:43:42.852Z,47.96
2018-11-12T13:46:11.319Z,47.82
2018-11-12T13:48:39.770Z,46.99
2018-11-12T13:51:08.198Z,46.71
2018-11-12T13:53:36.650Z,46.02
2018-11-12T13:56:05.618Z,45.51
2018-11-12T13:58:34.047Z,44.53
2018-11-12T14:01:02.458Z,44.21
2018-11-12T14:03:30.958Z,43.56
2018-11-12T14:05:59.445Z,42.96
2018-11-12T14:08:27.892Z,43.00
2018-11-12T14:10:56.334Z,41.94
2018-11-12T14:13:24.810Z,40.38
2018-11-12T14:15:53.202Z,37.38
2018-11-12T14:18:21.679Z,34.44
2018-11-12T14:20:50.140Z,31.95
2018-11-12T14:23:18.566Z,30.81
2018-11-12T14:25:47.083Z,29.24
2018-11-12T14:28:15.662Z,28.68
2018-11-12T14:30:44.079Z,27.46
2018-11-12T14:33:12.599Z,27.36
2018-11-12T14:35:41.134Z,27.30
2018-11-12T14:38:09.411Z,26.57
2018-11-12T14:40:37.858Z,27.36
2018-11-12T14:43:06.298Z,27.76
2018-11-12T14:45:34.744Z,30.59
2018-11-12T14:48:03.203Z,34.14
2018-11-12T14:50:31.646Z,36.06
2018-11-12T14:53:00.043Z,40.76
2018-11-12T14:55:28.470Z,43.13
2018-11-12T14:57:56.882Z,44.93
2018-11-12T15:00:26.446Z,47.15
2018-11-12T15:02:55.470Z,47.82
2018-11-12T15:05:24.994Z,49.63
2018-11-12T15:07:53.445Z,50.78
2018-11-12T15:10:21.923Z,51.40
2018-11-12T15:12:50.711Z,52.62
2018-11-12T15:15:19.304Z,53.71
2018-11-12T15:17:47.710Z,54.22
2018-11-12T15:20:17.317Z,55.17
2018-11-12T15:22:45.974Z,55.13
2018-11-12T15:25:16.190Z,55.82
2018-11-12T15:27:45.013Z,56.09
2018-11-12T15:30:15.128Z,56.92
2018-11-12T15:32:44.220Z,57.15
2018-11-12T15:35:13.286Z,57.84
2018-11-12T15:37:42.595Z,58.05
2018-11-12T15:40:11.788Z,58.20
2018-11-12T15:42:40.821Z,58.86
2018-11-12T15:45:13.763Z,59.38
2018-11-12T15:47:42.894Z,58.87
2018-11-12T15:50:16.158Z,59.11
2018-11-12T15:52:45.181Z,60.14
2018-11-12T15:55:13.609Z,59.69
2018-11-12T15:57:42.190Z,60.32
2018-11-12T16:00:13.563Z,59.33
2018-11-12T16:02:42.060Z,60.08
2018-11-12T16:05:11.335Z,60.65
2018-11-12T16:07:39.830Z,60.28
2018-11-12T16:10:13.756Z,60.87
2018-11-12T16:12:42.350Z,60.27
2018-11-12T16:15:11.722Z,60.87
2018-11-12T16:17:46.505Z,60.57
2018-11-12T16:20:23.005Z,60.67
2018-11-12T16:22:52.038Z,60.83
2018-11-12T16:25:20.893Z,61.00
2018-11-12T16:27:49.343Z,61.25
2018-11-12T16:30:17.766Z,60.97
2018-11-12T16:32:46.794Z,62.19
2018-11-12T16:35:17.099Z,61.43
2018-11-12T16:37:46.282Z,61.84
2018-11-12T16:40:14.745Z,61.65
2018-11-12T16:42:44.137Z,61.82
2018-11-12T16:45:13.390Z,62.02
2018-11-12T16:47:41.871Z,62.18
2018-11-12T16:50:11.578Z,61.67
2018-11-12T16:52:40.023Z,62.64
2018-11-12T16:55:12.534Z,62.32
2018-11-12T16:57:40.945Z,62.26
2018-11-12T17:00:11.146Z,62.19
2018-11-12T17:02:39.619Z,62.60
2018-11-12T17:05:10.032Z,62.94
2018-11-12T17:07:38.494Z,62.34
2018-11-12T17:10:09.194Z,62.78
2018-11-12T17:12:38.010Z,62.21
2018-11-12T17:15:06.803Z,63.08
2018-11-12T17:17:35.323Z,62.62
2018-11-12T17:20:03.747Z,63.09
2018-11-12T17:22:32.192Z,63.00
2018-11-12T17:25:00.694Z,63.06
2018-11-12T17:27:29.115Z,62.49
2018-11-12T17:29:57.535Z,62.64
2018-11-12T17:32:25.995Z,63.33
2018-11-12T17:34:54.512Z,63.65
2018-11-12T17:37:22.979Z,63.71
2018-11-12T17:39:51.410Z,63.34
2018-11-12T17:42:19.858Z,63.77
2018-11-12T17:44:48.311Z,63.19
2018-11-12T17:47:16.766Z,63.74
2018-11-12T17:49:45.202Z,63.94
2018-11-12T17:52:13.829Z,63.35
2018-11-12T17:54:42.274Z,63.47
2018-11-12T17:57:10.746Z,63.45
2018-11-12T17:59:39.202Z,63.31
2018-11-12T18:02:07.748Z,63.67
2018-11-12T18:04:36.227Z,63.97
2018-11-12T18:07:04.831Z,64.87
2018-11-12T18:09:33.297Z,65.29
2018-11-12T18:12:01.911Z,65.05
2018-11-12T18:14:30.637Z,64.38
2018-11-12T18:16:59.145Z,64.24
2018-11-12T18:19:27.800Z,64.07
2018-11-12T18:21:56.486Z,64.41
2018-11-12T18:24:25.061Z,63.79
2018-11-12T18:26:53.639Z,64.18
2018-11-12T18:29:22.423Z,64.90
2018-11-12T18:31:51.199Z,64.11
2018-11-12T18:34:19.819Z,64.44
2018-11-12T20:26:22.478Z,66.48
2018-11-12T20:28:51.038Z,66.59
2018-11-12T20:31:20.577Z,65.83
2018-11-12T20:33:49.802Z,65.95
2018-11-12T20:36:19.087Z,66.52
2018-11-12T20:38:51.633Z,66.48
2018-11-12T20:41:20.795Z,66.09
2018-11-12T20:43:50.700Z,66.01
2018-11-12T20:46:19.365Z,66.13
2018-11-12T20:48:48.026Z,66.31
2018-11-12T20:51:18.070Z,66.53
2018-11-12T20:53:46.891Z,66.43
2018-11-12T20:56:15.505Z,67.05
2018-11-12T20:58:43.981Z,67.52
2018-11-12T21:01:15.345Z,67.01
2018-11-12T21:03:47.713Z,66.92
2018-11-12T21:06:17.841Z,66.32
2018-11-12T21:08:46.263Z,66.41
2018-11-12T21:11:14.758Z,66.98
2018-11-12T21:13:43.192Z,66.33
2018-11-12T21:16:11.666Z,66.25
2018-11-12T21:18:40.246Z,66.42
2018-11-12T21:21:08.828Z,67.15
2018-11-12T21:23:37.299Z,66.68
2018-11-12T21:26:06.177Z,66.54
2018-11-12T21:28:34.582Z,66.09
2018-11-12T21:31:05.967Z,66.05
2018-11-12T21:33:34.422Z,67.30
2018-11-12T21:36:04.467Z,67.18
2018-11-12T21:38:33.081Z,68.15
2018-11-12T21:41:03.429Z,66.52
2018-11-12T21:43:32.963Z,66.98
2018-11-12T21:46:04.998Z,66.75
2018-11-12T21:48:33.465Z,66.81
2018-11-12T21:51:04.718Z,66.65
2018-11-12T21:53:33.266Z,67.11
2018-11-12T21:56:05.873Z,66.41
2018-11-12T21:58:34.413Z,66.66
2018-11-12T22:01:09.039Z,67.00
2018-11-12T22:03:37.569Z,66.83
2018-11-12T22:06:06.086Z,66.17
2018-11-12T22:08:34.568Z,66.66
2018-11-12T22:11:05.231Z,66.77
2018-11-12T22:13:33.678Z,66.52
2018-11-12T22:16:04.449Z,67.53
2018-11-12T22:18:33.182Z,66.79
2018-11-12T22:21:03.683Z,67.15
2018-11-12T22:23:32.174Z,67.99
2018-11-12T22:26:00.590Z,67.10
2018-11-12T22:28:28.985Z,66.92
2018-11-12T22:30:57.411Z,67.37
2018-11-12T22:33:25.822Z,66.82
2018-11-12T22:35:54.218Z,66.57
2018-11-12T22:38:22.875Z,66.57
2018-11-12T22:40:51.311Z,66.67
2018-11-12T22:43:19.698Z,66.78
2018-11-12T22:45:48.155Z,67.02
2018-11-12T22:48:16.547Z,66.17
2018-11-12T22:50:45.346Z,66.82
2018-11-12T22:53:13.743Z,65.98
2018-11-12T22:55:42.162Z,66.24
2018-11-12T22:58:10.606Z,65.47
2018-11-12T23:00:40.670Z,65.75
2018-11-12T23:03:09.493Z,65.74
2018-11-12T23:05:37.889Z,65.86
2018-11-12T23:08:06.569Z,65.36
2018-11-12T23:10:34.975Z,66.16
2018-11-12T23:13:06.303Z,66.06
2018-11-12T23:15:34.762Z,66.01
2018-11-12T23:18:06.717Z,65.69
2018-11-12T23:20:35.134Z,65.40
2018-11-12T23:23:06.086Z,65.63
2018-11-12T23:25:34.506Z,64.92
2018-11-12T23:28:05.122Z,65.91
2018-11-12T23:30:33.510Z,65.04
2018-11-12T23:33:04.266Z,65.74
2018-11-12T23:35:32.661Z,65.54
2018-11-12T23:38:04.407Z,65.70
2018-11-12T23:40:32.806Z,65.35
2018-11-12T23:43:03.619Z,65.24
2018-11-12T23:45:32.014Z,64.95
2018-11-12T23:48:00.442Z,65.42
2018-11-12T23:50:28.838Z,64.78
2018-11-12T23:52:57.271Z,64.83
2018-11-12T23:55:25.678Z,65.72
2018-11-12T23:57:54.071Z,65.44
